createdAt,value
2022-08-10T00:01:51.229Z,15.35
2022-08-10T00:04:22.268Z,15.53
2022-08-10T00:06:53.899Z,15.53
2022-08-10T00:09:23.545Z,15.33
2022-08-10T00:11:52.144Z,15.37
2022-08-10T00:14:20.624Z,15.29
2022-08-10T00:16:49.252Z,15.21
2022-08-10T00:19:18.329Z,15.16
2022-08-10T00:21:47.633Z,15.23
2022-08-10T00:24:17.805Z,15.14
2022-08-10T00:27:51.708Z,15.14
2022-08-10T00:29:34.726Z,15.18
2022-08-10T00:32:04.641Z,15.10
2022-08-10T00:34:34.619Z,15.16
2022-08-10T00:37:03.046Z,15.15
2022-08-10T00:39:35.951Z,15.18
2022-08-10T00:42:08.266Z,15.07
2022-08-10T00:44:37.956Z,15.25
2022-08-10T00:47:06.869Z,15.23
2022-08-10T00:49:38.851Z,15.05
2022-08-10T00:52:08.198Z,14.97
2022-08-10T00:54:38.545Z,14.83
2022-08-10T00:57:17.814Z,14.88
2022-08-10T00:59:59.408Z,14.74
2022-08-10T01:02:30.836Z,14.73
2022-08-10T01:05:02.441Z,14.80
2022-08-10T01:07:46.801Z,14.80
2022-08-10T01:10:26.913Z,14.75
2022-08-10T01:13:02.243Z,14.83
2022-08-10T01:15:35.377Z,14.62
2022-08-10T01:18:07.445Z,14.55
2022-08-10T01:20:43.258Z,14.49
2022-08-10T01:23:41.065Z,14.57
2022-08-10T01:26:43.358Z,14.40
2022-08-10T01:29:45.064Z,14.34
2022-08-10T01:32:18.785Z,14.30
2022-08-10T01:34:51.979Z,14.26
2022-08-10T01:37:26.038Z,14.32
2022-08-10T01:39:59.806Z,14.22
2022-08-10T01:42:33.842Z,14.28
2022-08-10T01:45:06.000Z,14.30
2022-08-10T01:47:57.962Z,14.34
2022-08-10T01:50:30.895Z,14.35
2022-08-10T01:53:04.965Z,14.39
2022-08-10T01:55:34.262Z,14.40
2022-08-10T01:58:05.679Z,14.45
2022-08-10T02:00:36.273Z,14.31
2022-08-10T02:03:08.526Z,14.16
2022-08-10T02:05:39.953Z,14.10
2022-08-10T02:08:12.746Z,14.18
2022-08-10T02:10:44.017Z,14.17
2022-08-10T02:13:16.095Z,14.15
2022-08-10T02:16:01.427Z,14.29
2022-08-10T02:18:32.730Z,14.35
2022-08-10T02:21:04.989Z,14.24
2022-08-10T02:23:35.701Z,14.18
2022-08-10T02:26:05.146Z,14.21
2022-08-10T02:28:36.489Z,14.12
2022-08-10T02:31:11.544Z,14.06
2022-08-10T02:33:56.312Z,14.12
2022-08-10T02:36:29.041Z,14.15
2022-08-10T02:39:01.373Z,14.23
2022-08-10T02:45:14.108Z,14.27
2022-08-10T02:45:20.483Z,14.15
2022-08-10T02:47:23.290Z,14.05
2022-08-10T02:50:00.564Z,13.94
2022-08-10T02:52:34.927Z,13.87
2022-08-10T02:55:18.315Z,13.69
2022-08-10T02:58:17.147Z,13.67
2022-08-10T03:00:44.567Z,13.79
2022-08-10T03:03:18.968Z,13.77
2022-08-10T03:05:50.423Z,13.77
2022-08-10T03:08:22.587Z,13.59
2022-08-10T03:10:52.141Z,13.48
2022-08-10T03:13:21.735Z,13.49
2022-08-10T03:15:51.784Z,13.58
2022-08-10T03:18:22.779Z,13.66
2022-08-10T03:20:54.289Z,13.73
2022-08-10T03:23:25.279Z,13.72
2022-08-10T03:25:57.518Z,13.77
2022-08-10T03:28:28.833Z,13.80
2022-08-10T03:30:59.345Z,13.78
2022-08-10T03:33:31.446Z,13.65
2022-08-10T03:36:41.445Z,13.50
2022-08-10T03:38:52.586Z,13.51
2022-08-10T03:41:25.749Z,13.54
2022-08-10T03:43:59.500Z,13.53
2022-08-10T03:46:29.651Z,13.27
2022-08-10T03:49:01.865Z,13.48
2022-08-10T03:51:32.214Z,13.45
2022-08-10T03:54:05.590Z,13.48
2022-08-10T03:56:37.848Z,13.57
2022-08-10T03:59:07.179Z,13.67
2022-08-10T04:02:44.576Z,13.85
2022-08-10T04:04:25.112Z,13.86
2022-08-10T04:06:56.517Z,13.91
2022-08-10T04:09:42.685Z,13.86
2022-08-10T04:12:15.778Z,13.83
2022-08-10T04:14:49.657Z,13.99
2022-08-10T04:17:18.554Z,14.10
2022-08-10T04:20:10.156Z,14.15
2022-08-10T04:22:41.158Z,14.28
2022-08-10T04:25:11.530Z,14.41
2022-08-10T04:27:40.169Z,14.52
2022-08-10T04:30:09.766Z,14.66
2022-08-10T04:32:39.449Z,14.88
2022-08-10T04:35:11.224Z,14.89
2022-08-10T04:37:47.282Z,15.04
2022-08-10T04:40:28.607Z,15.17
2022-08-10T04:43:03.323Z,15.32
2022-08-10T04:45:50.423Z,15.52
2022-08-10T04:48:40.444Z,15.89
2022-08-10T04:51:17.045Z,16.16
2022-08-10T04:54:06.124Z,16.33
2022-08-10T04:56:40.132Z,16.30
2022-08-10T04:59:10.053Z,15.92
2022-08-10T05:02:28.531Z,16.06
2022-08-10T05:04:35.840Z,16.41
2022-08-10T05:07:09.380Z,16.68
2022-08-10T05:10:01.100Z,16.89
2022-08-10T05:12:28.398Z,17.05
2022-08-10T05:14:56.996Z,17.25
2022-08-10T05:17:25.433Z,17.27
2022-08-10T05:20:04.046Z,17.48
2022-08-10T05:22:39.508Z,17.86
2022-08-10T05:25:12.605Z,18.03
2022-08-10T05:27:41.920Z,18.24
2022-08-10T05:30:13.418Z,18.47
2022-08-10T05:32:56.870Z,18.54
2022-08-10T05:35:52.372Z,18.79
2022-08-10T05:38:21.683Z,18.97
2022-08-10T05:40:51.623Z,19.05
2022-08-10T05:43:22.102Z,18.89
2022-08-10T05:46:19.013Z,19.02
2022-08-10T05:48:58.693Z,19.15
2022-08-10T05:51:29.904Z,19.08
2022-08-10T05:54:04.933Z,19.34
2022-08-10T05:56:54.211Z,19.41
2022-08-10T06:00:10.886Z,19.58
2022-08-10T06:02:30.639Z,19.48
2022-08-10T06:05:05.043Z,19.97
2022-08-10T06:07:33.899Z,19.87
2022-08-10T06:10:03.957Z,20.30
2022-08-10T06:12:54.442Z,20.50
2022-08-10T06:15:51.713Z,20.76
2022-08-10T06:18:15.513Z,21.02
2022-08-10T06:20:44.268Z,20.99
2022-08-10T06:23:13.673Z,21.07
2022-08-10T06:26:10.903Z,21.41
2022-08-10T06:28:35.924Z,21.52
2022-08-10T06:31:06.498Z,21.54
2022-08-10T06:33:39.346Z,21.69
2022-08-10T06:36:10.634Z,21.68
2022-08-10T06:38:40.545Z,21.75
2022-08-10T06:41:16.839Z,21.72
2022-08-10T06:43:55.717Z,22.17
2022-08-10T06:46:25.951Z,22.35
2022-08-10T06:48:58.401Z,22.29
2022-08-10T06:51:30.916Z,22.51
2022-08-10T06:54:02.485Z,22.94
2022-08-10T06:56:37.414Z,23.40
2022-08-10T06:59:21.968Z,23.29
2022-08-10T07:01:55.870Z,24.17
2022-08-10T07:04:32.207Z,28.89
2022-08-10T07:07:05.265Z,34.36
2022-08-10T07:09:36.274Z,36.76
2022-08-10T07:12:09.096Z,37.81
2022-08-10T07:14:47.072Z,36.36
2022-08-10T07:17:18.674Z,40.17
2022-08-10T07:19:52.165Z,41.02
2022-08-10T07:23:27.399Z,44.12
2022-08-10T07:25:16.242Z,39.39
2022-08-10T07:28:00.859Z,33.58
2022-08-10T07:30:35.034Z,33.76
2022-08-10T07:33:07.026Z,34.38
2022-08-10T07:35:42.563Z,34.59
2022-08-10T07:38:18.212Z,35.73
2022-08-10T07:40:49.318Z,36.92
2022-08-10T07:43:19.306Z,36.11
2022-08-10T07:45:50.547Z,39.76
2022-08-10T07:48:23.765Z,43.78
2022-08-10T07:50:55.157Z,38.44
2022-08-10T07:53:27.536Z,38.29
2022-08-10T07:56:04.548Z,39.75
2022-08-10T07:58:46.120Z,38.58
2022-08-10T08:01:22.305Z,34.08
2022-08-10T08:04:11.004Z,35.47
2022-08-10T08:06:41.580Z,36.67
2022-08-10T08:09:11.644Z,38.06
2022-08-10T08:11:42.566Z,36.72
2022-08-10T08:14:12.151Z,37.89
2022-08-10T08:16:45.133Z,39.00
2022-08-10T08:19:35.526Z,41.13
2022-08-10T08:24:07.235Z,40.06
2022-08-10T08:24:53.330Z,39.97
2022-08-10T08:27:22.763Z,40.11
2022-08-10T08:29:53.117Z,41.31
2022-08-10T08:32:26.799Z,36.64
2022-08-10T08:34:58.945Z,38.92
2022-08-10T08:38:29.176Z,38.28
2022-08-10T08:40:24.595Z,36.26
2022-08-10T08:43:25.507Z,35.05
2022-08-10T08:46:19.555Z,34.30
2022-08-10T08:49:09.707Z,35.10
2022-08-10T08:52:16.911Z,34.59
2022-08-10T08:54:47.841Z,37.00
2022-08-10T08:57:49.149Z,36.11
2022-08-10T09:00:20.012Z,38.32
2022-08-10T09:03:11.524Z,40.21
2022-08-10T09:05:58.681Z,38.22
2022-08-10T09:08:42.372Z,36.22
2022-08-10T09:11:25.615Z,40.13
2022-08-10T09:14:02.232Z,38.23
2022-08-10T09:16:43.938Z,37.58
2022-08-10T09:19:36.685Z,37.36
2022-08-10T09:22:18.284Z,35.82
2022-08-10T09:24:55.074Z,32.66
2022-08-10T09:27:26.446Z,30.57
2022-08-10T09:29:56.810Z,30.42
2022-08-10T09:36:16.837Z,32.23
2022-08-10T09:36:20.167Z,31.89
2022-08-10T09:38:29.906Z,34.78
2022-08-10T09:41:12.308Z,37.96
2022-08-10T09:43:52.500Z,35.42
2022-08-10T09:46:41.140Z,35.00
2022-08-10T09:49:18.522Z,34.63
2022-08-10T09:51:56.178Z,36.57
2022-08-10T09:54:40.688Z,35.13
2022-08-10T09:57:51.744Z,35.97
2022-08-10T10:00:11.552Z,37.42
2022-08-10T10:02:50.842Z,38.45
2022-08-10T10:05:52.224Z,33.59
2022-08-10T10:08:33.546Z,33.98
2022-08-10T10:11:13.225Z,35.53
2022-08-10T10:14:02.456Z,37.20
2022-08-10T10:16:45.109Z,34.03
2022-08-10T10:19:28.527Z,34.14
2022-08-10T10:22:08.234Z,35.28
2022-08-10T10:24:42.720Z,35.73
2022-08-10T10:27:24.815Z,36.32
2022-08-10T10:30:00.728Z,36.31
2022-08-10T10:32:50.360Z,35.36
2022-08-10T10:35:28.060Z,36.39
2022-08-10T10:38:03.222Z,35.06
2022-08-10T10:40:43.420Z,34.21
2022-08-10T10:43:27.325Z,31.56
2022-08-10T10:46:13.114Z,33.15
2022-08-10T10:48:53.789Z,35.48
2022-08-10T10:51:27.765Z,34.05
2022-08-10T10:54:05.886Z,32.93
2022-08-10T10:56:43.751Z,33.98
2022-08-10T10:59:53.651Z,34.76
2022-08-10T11:02:26.118Z,33.47
2022-08-10T11:05:03.887Z,33.32
2022-08-10T11:07:39.342Z,34.18
2022-08-10T11:10:32.848Z,34.23
2022-08-10T11:14:25.673Z,34.04
2022-08-10T11:16:12.386Z,32.41
2022-08-10T11:18:55.635Z,32.97
2022-08-10T11:21:34.393Z,34.46
2022-08-10T11:24:48.419Z,33.19
2022-08-10T11:27:03.542Z,31.87
2022-08-10T11:29:41.488Z,30.12
2022-08-10T11:32:21.221Z,29.95
2022-08-10T11:35:10.290Z,32.24
2022-08-10T11:38:31.957Z,32.34
2022-08-10T11:40:40.413Z,31.72
2022-08-10T11:43:14.425Z,32.02
2022-08-10T11:45:52.260Z,31.01
2022-08-10T11:48:53.415Z,29.24
2022-08-10T11:51:28.015Z,29.23
2022-08-10T11:54:03.146Z,28.83
2022-08-10T11:56:39.846Z,28.89
2022-08-10T11:59:25.641Z,28.92
2022-08-10T12:01:54.405Z,28.88
2022-08-10T12:04:25.657Z,29.26
2022-08-10T12:06:56.245Z,30.51
2022-08-10T12:10:11.389Z,31.05
2022-08-10T12:12:17.275Z,31.25
2022-08-10T12:14:52.599Z,29.93
2022-08-10T12:17:26.595Z,28.82
2022-08-10T12:20:03.972Z,28.87
2022-08-10T12:22:37.495Z,29.33
2022-08-10T12:25:10.314Z,30.32
2022-08-10T12:27:43.249Z,29.77
2022-08-10T12:30:16.013Z,29.65
2022-08-10T12:32:50.352Z,30.35
2022-08-10T12:35:26.857Z,30.79
2022-08-10T12:38:07.123Z,30.55
2022-08-10T12:40:43.373Z,29.91
2022-08-10T12:44:04.884Z,29.56
2022-08-10T12:46:08.380Z,29.03
2022-08-10T12:48:40.625Z,28.53
2022-08-10T12:51:16.090Z,27.98
2022-08-10T12:53:51.442Z,27.73
2022-08-10T12:56:26.604Z,27.72
2022-08-10T12:59:00.117Z,27.81
2022-08-10T13:02:07.481Z,27.77
2022-08-10T13:04:29.391Z,27.92
2022-08-10T13:07:01.870Z,27.26
2022-08-10T13:09:30.522Z,28.27
2022-08-10T13:12:38.956Z,29.42
2022-08-10T13:14:55.985Z,29.04
2022-08-10T13:17:39.020Z,28.47
2022-08-10T13:20:19.255Z,30.21
2022-08-10T13:22:50.704Z,31.09
2022-08-10T13:25:23.468Z,31.87
2022-08-10T13:28:00.971Z,30.93
2022-08-10T13:30:44.160Z,30.88
2022-08-10T13:34:40.549Z,31.42
2022-08-10T13:36:16.234Z,31.69
2022-08-10T13:38:48.884Z,32.44
2022-08-10T13:41:18.214Z,30.23
2022-08-10T13:43:52.214Z,29.73
2022-08-10T13:46:23.493Z,28.74
2022-08-10T13:48:53.439Z,28.64
2022-08-10T13:51:54.535Z,28.73
2022-08-10T13:54:19.083Z,28.50
2022-08-10T13:56:49.926Z,27.75
2022-08-10T13:59:20.463Z,27.46
2022-08-10T14:01:51.099Z,27.60
2022-08-10T14:04:20.153Z,28.22
2022-08-10T14:06:55.641Z,29.14
2022-08-10T14:09:32.271Z,29.94
2022-08-10T14:12:00.677Z,30.69
2022-08-10T14:14:30.309Z,30.56
2022-08-10T14:16:59.821Z,31.27
2022-08-10T14:19:30.466Z,31.27
2022-08-10T14:21:58.949Z,32.41
2022-08-10T14:24:32.838Z,32.53
2022-08-10T14:27:06.038Z,32.13
2022-08-10T14:29:40.706Z,31.54
2022-08-10T14:32:12.118Z,31.70
2022-08-10T14:36:16.027Z,30.81
2022-08-10T14:37:38.301Z,29.89
2022-08-10T14:40:14.181Z,28.69
2022-08-10T14:42:47.005Z,28.05
2022-08-10T14:45:23.179Z,27.87
2022-08-10T14:47:59.381Z,28.13
2022-08-10T14:50:33.504Z,29.08
2022-08-10T14:53:09.285Z,29.84
2022-08-10T14:55:58.609Z,30.78
2022-08-10T14:58:31.759Z,31.21
2022-08-10T15:01:00.878Z,31.89
2022-08-10T15:03:59.379Z,32.02
2022-08-10T15:06:30.968Z,31.39
2022-08-10T15:09:05.059Z,31.15
2022-08-10T15:12:14.033Z,30.72
2022-08-10T15:14:43.071Z,29.08
2022-08-10T15:17:14.515Z,28.19
2022-08-10T15:20:02.803Z,27.75
2022-08-10T15:22:38.800Z,27.54
2022-08-10T15:25:18.057Z,27.59
2022-08-10T15:27:53.455Z,27.35
2022-08-10T15:30:30.567Z,27.22
2022-08-10T15:34:02.905Z,27.06
2022-08-10T15:36:32.893Z,26.86
2022-08-10T15:39:05.665Z,28.19
2022-08-10T15:41:57.433Z,29.16
2022-08-10T15:44:36.796Z,29.24
2022-08-10T15:47:09.197Z,29.50
2022-08-10T15:49:45.663Z,29.88
2022-08-10T15:52:39.084Z,30.03
2022-08-10T15:55:43.571Z,29.83
2022-08-10T15:58:06.852Z,30.24
2022-08-10T16:00:40.754Z,30.78
2022-08-10T16:03:14.538Z,30.21
2022-08-10T16:06:01.563Z,30.47
2022-08-10T16:08:56.031Z,30.57
2022-08-10T16:11:37.587Z,30.88
2022-08-10T16:14:11.548Z,30.48
2022-08-10T16:16:42.584Z,30.35
2022-08-10T16:19:23.825Z,30.18
2022-08-10T16:21:57.300Z,29.78
2022-08-10T16:24:26.922Z,29.80
2022-08-10T16:26:55.843Z,29.60
2022-08-10T16:29:27.042Z,30.20
2022-08-10T16:31:59.821Z,30.31
2022-08-10T16:34:32.411Z,30.18
2022-08-10T16:37:03.933Z,29.73
2022-08-10T16:39:58.008Z,29.50
2022-08-10T16:42:28.401Z,28.63
2022-08-10T16:45:01.576Z,28.94
2022-08-10T16:47:33.457Z,28.25
2022-08-10T16:50:05.047Z,28.73
2022-08-10T16:52:34.534Z,28.93
2022-08-10T16:55:23.763Z,28.37
2022-08-10T16:57:55.580Z,28.53
2022-08-10T17:00:24.857Z,28.48
2022-08-10T17:02:59.182Z,28.70
2022-08-10T17:06:01.540Z,28.48
2022-08-10T17:08:24.107Z,28.54
2022-08-10T17:10:56.452Z,27.96
2022-08-10T17:13:27.649Z,27.84
2022-08-10T17:16:00.092Z,28.08
2022-08-10T17:18:30.784Z,28.30
2022-08-10T17:21:06.440Z,28.25
2022-08-10T17:23:39.022Z,28.04
2022-08-10T17:26:11.777Z,27.43
2022-08-10T17:28:44.972Z,27.11
2022-08-10T17:31:53.963Z,27.50
2022-08-10T17:34:20.391Z,26.91
2022-08-10T17:36:52.422Z,27.25
2022-08-10T17:39:23.935Z,26.51
2022-08-10T17:41:53.881Z,26.44
2022-08-10T17:44:22.973Z,26.16
2022-08-10T17:46:52.514Z,26.16
2022-08-10T17:49:22.119Z,26.07
2022-08-10T17:51:54.834Z,25.83
2022-08-10T17:54:29.211Z,25.51
2022-08-10T17:57:00.553Z,25.43
2022-08-10T17:59:31.218Z,25.36
2022-08-10T18:02:04.330Z,25.40
2022-08-10T18:04:41.802Z,25.30
2022-08-10T18:07:12.657Z,25.16
2022-08-10T18:09:44.528Z,25.02
2022-08-10T18:12:17.729Z,24.83
2022-08-10T18:14:51.244Z,24.58
2022-08-10T18:17:23.188Z,24.32
2022-08-10T18:19:57.814Z,23.97
2022-08-10T18:22:26.813Z,23.70
2022-08-10T18:24:57.483Z,23.47
2022-08-10T18:27:46.509Z,23.24
2022-08-10T18:30:17.161Z,23.13
2022-08-10T18:32:50.115Z,23.01
2022-08-10T18:35:21.191Z,22.85
2022-08-10T18:37:53.058Z,22.63
2022-08-10T18:40:21.584Z,22.44
2022-08-10T18:44:02.824Z,22.18
2022-08-10T18:45:57.779Z,22.04
2022-08-10T18:48:34.269Z,21.89
2022-08-10T18:51:07.393Z,21.69
2022-08-10T18:53:38.266Z,21.60
2022-08-10T18:56:17.221Z,21.39
2022-08-10T18:59:02.732Z,21.30
2022-08-10T19:01:49.625Z,21.17
2022-08-10T19:04:28.623Z,21.17
2022-08-10T19:07:27.554Z,21.07
2022-08-10T19:10:09.432Z,20.92
2022-08-10T19:12:45.631Z,20.89
2022-08-10T19:15:24.170Z,20.78
2022-08-10T19:18:07.708Z,20.67
2022-08-10T19:20:42.361Z,20.56
2022-08-10T19:23:24.745Z,20.37
2022-08-10T19:26:38.185Z,20.24
2022-08-10T19:28:59.237Z,20.11
2022-08-10T19:31:44.138Z,19.97
2022-08-10T19:34:34.799Z,19.94
2022-08-10T19:37:15.773Z,19.92
2022-08-10T19:39:59.849Z,19.96
2022-08-10T19:42:34.943Z,19.85
2022-08-10T19:45:56.133Z,19.80
2022-08-10T19:48:12.964Z,19.68
2022-08-10T19:50:45.657Z,19.31
2022-08-10T19:53:24.962Z,19.08
2022-08-10T19:56:18.770Z,19.05
2022-08-10T19:59:11.381Z,19.04
2022-08-10T20:01:55.138Z,18.78
2022-08-10T20:04:31.956Z,18.68
2022-08-10T20:07:12.519Z,18.67
2022-08-10T20:09:48.395Z,18.53
2022-08-10T20:12:30.802Z,18.45
2022-08-10T20:15:05.038Z,18.41
2022-08-10T20:17:51.062Z,18.29
2022-08-10T20:20:30.991Z,18.36
2022-08-10T20:23:09.510Z,18.38
2022-08-10T20:25:37.845Z,18.44
2022-08-10T20:28:16.288Z,18.48
2022-08-10T20:30:47.918Z,18.45
2022-08-10T20:33:25.967Z,18.27
2022-08-10T20:36:03.565Z,18.06
2022-08-10T20:38:40.057Z,18.08
2022-08-10T20:41:19.127Z,18.17
2022-08-10T20:44:03.571Z,18.03
2022-08-10T20:46:38.954Z,17.69
2022-08-10T20:49:20.909Z,17.46
2022-08-10T20:51:57.557Z,17.42
2022-08-10T20:54:32.684Z,17.35
2022-08-10T20:58:04.053Z,17.37
2022-08-10T21:00:13.429Z,17.40
2022-08-10T21:02:58.229Z,17.31
2022-08-10T21:05:34.535Z,17.37
2022-08-10T21:08:17.456Z,17.33
2022-08-10T21:10:59.909Z,17.39
2022-08-10T21:13:44.396Z,17.41
2022-08-10T21:16:37.379Z,17.38
2022-08-10T21:19:36.049Z,17.40
2022-08-10T21:22:13.153Z,17.39
2022-08-10T21:24:52.301Z,17.18
2022-08-10T21:28:16.813Z,16.89
2022-08-10T21:31:39.134Z,16.70
2022-08-10T21:34:31.678Z,16.42
2022-08-10T21:37:08.252Z,16.42
2022-08-10T21:39:52.489Z,16.49
2022-08-10T21:42:54.350Z,16.56
2022-08-10T21:45:58.976Z,16.56
2022-08-10T21:48:57.267Z,16.50
2022-08-10T21:52:01.758Z,16.43
2022-08-10T21:54:58.838Z,16.33
2022-08-10T21:57:48.581Z,16.25
2022-08-10T22:00:35.833Z,16.28
2022-08-10T22:03:23.348Z,16.35
2022-08-10T22:06:14.425Z,16.38
2022-08-10T22:09:04.774Z,16.53
2022-08-10T22:11:53.729Z,16.51
2022-08-10T22:14:44.493Z,16.41
2022-08-10T22:18:00.222Z,16.50
2022-08-10T22:20:44.465Z,16.53
2022-08-10T22:23:48.093Z,16.33
2022-08-10T22:27:00.466Z,16.03
2022-08-10T22:29:52.653Z,15.82
2022-08-10T22:32:49.164Z,15.74
2022-08-10T22:35:57.077Z,15.88
2022-08-10T22:38:57.175Z,15.95
2022-08-10T22:41:53.001Z,16.02
2022-08-10T22:44:41.034Z,16.04
2022-08-10T22:47:30.334Z,16.14
2022-08-10T22:50:03.451Z,16.08
2022-08-10T22:53:01.767Z,15.98
2022-08-10T22:55:53.421Z,16.05
2022-08-10T22:58:40.956Z,15.80
2022-08-10T23:01:36.172Z,15.96
2022-08-10T23:04:09.419Z,15.89
2022-08-10T23:06:40.875Z,15.96
2022-08-10T23:09:13.545Z,15.88
2022-08-10T23:11:45.106Z,15.95
2022-08-10T23:14:22.037Z,15.95
2022-08-10T23:17:12.020Z,15.86
2022-08-10T23:19:45.616Z,15.80
2022-08-10T23:22:16.106Z,15.87
2022-08-10T23:24:47.678Z,15.76
2022-08-10T23:27:39.058Z,15.76
2022-08-10T23:30:18.039Z,15.83
2022-08-10T23:32:48.945Z,15.80
2022-08-10T23:36:30.827Z,15.85
2022-08-10T23:38:10.227Z,15.79
2022-08-10T23:40:39.113Z,15.63
2022-08-10T23:43:08.089Z,15.53
2022-08-10T23:45:53.080Z,15.50
2022-08-10T23:48:24.954Z,15.18
2022-08-10T23:50:58.364Z,15.36
2022-08-10T23:53:31.255Z,15.44
2022-08-10T23:56:07.585Z,15.32
2022-08-10T23:58:40.842Z,15.50
